sensor_id;sensor_type;location;lat;lon;timestamp;P1;durP1;ratioP1;P2;durP2;ratioP2
18288;SDS011;9270;49.774;8.472;2022-07-29T04:30:27;10.07;;;3.00;;
18288;SDS011;9270;49.774;8.472;2022-07-29T04:35:19;13.25;;;2.83;;
18288;SDS011;9270;49.774;8.472;2022-07-29T04:37:46;9.18;;;2.72;;
18288;SDS011;9270;49.774;8.472;2022-07-29T04:40:12;10.57;;;3.10;;
18288;SDS011;9270;49.774;8.472;2022-07-29T04:42:39;11.65;;;2.90;;
18288;SDS011;9270;49.774;8.472;2022-07-29T04:45:06;8.15;;;2.83;;
18288;SDS011;9270;49.774;8.472;2022-07-29T04:47:33;14.32;;;2.90;;
18288;SDS011;9270;49.774;8.472;2022-07-29T04:50:00;10.77;;;2.60;;
18288;SDS011;9270;49.774;8.472;2022-07-29T04:52:28;12.05;;;2.75;;
18288;SDS011;9270;49.774;8.472;2022-07-29T04:54:55;12.68;;;3.03;;
18288;SDS011;9270;49.774;8.472;2022-07-29T04:57:22;13.60;;;3.20;;
18288;SDS011;9270;49.774;8.472;2022-07-29T04:59:48;11.65;;;3.20;;
18288;SDS011;9270;49.774;8.472;2022-07-29T05:02:15;12.23;;;3.10;;
18288;SDS011;9270;49.774;8.472;2022-07-29T05:04:42;10.52;;;3.08;;
18288;SDS011;9270;49.774;8.472;2022-07-29T05:07:09;19.23;;;3.55;;
18288;SDS011;9270;49.774;8.472;2022-07-29T05:09:37;11.35;;;3.50;;
18288;SDS011;9270;49.774;8.472;2022-07-29T05:12:04;11.32;;;3.38;;
18288;SDS011;9270;49.774;8.472;2022-07-29T05:14:31;17.70;;;3.30;;
18288;SDS011;9270;49.774;8.472;2022-07-29T05:16:59;13.98;;;3.15;;
18288;SDS011;9270;49.774;8.472;2022-07-29T05:19:25;10.50;;;2.67;;
18288;SDS011;9270;49.774;8.472;2022-07-29T05:21:52;14.77;;;2.87;;
18288;SDS011;9270;49.774;8.472;2022-07-29T05:24:19;12.73;;;3.10;;
18288;SDS011;9270;49.774;8.472;2022-07-29T05:26:47;10.77;;;2.70;;
18288;SDS011;9270;49.774;8.472;2022-07-29T05:29:13;10.77;;;3.15;;
18288;SDS011;9270;49.774;8.472;2022-07-29T05:31:40;15.57;;;2.97;;
18288;SDS011;9270;49.774;8.472;2022-07-29T05:34:07;12.65;;;2.83;;
18288;SDS011;9270;49.774;8.472;2022-07-29T05:36:34;12.82;;;2.95;;
18288;SDS011;9270;49.774;8.472;2022-07-29T05:39:00;13.88;;;3.25;;
18288;SDS011;9270;49.774;8.472;2022-07-29T05:41:27;16.15;;;3.15;;
18288;SDS011;9270;49.774;8.472;2022-07-29T05:43:55;11.07;;;3.08;;
18288;SDS011;9270;49.774;8.472;2022-07-29T05:46:22;14.35;;;2.83;;
18288;SDS011;9270;49.774;8.472;2022-07-29T05:48:49;11.45;;;2.72;;
18288;SDS011;9270;49.774;8.472;2022-07-29T05:51:16;13.85;;;3.20;;
18288;SDS011;9270;49.774;8.472;2022-07-29T05:53:42;8.98;;;3.00;;
18288;SDS011;9270;49.774;8.472;2022-07-29T05:56:09;11.70;;;2.60;;
18288;SDS011;9270;49.774;8.472;2022-07-29T05:58:36;10.68;;;2.78;;
18288;SDS011;9270;49.774;8.472;2022-07-29T06:01:04;10.98;;;3.08;;
18288;SDS011;9270;49.774;8.472;2022-07-29T06:03:31;10.30;;;2.75;;
18288;SDS011;9270;49.774;8.472;2022-07-29T06:05:58;13.35;;;2.80;;
18288;SDS011;9270;49.774;8.472;2022-07-29T06:08:25;15.85;;;2.90;;
18288;SDS011;9270;49.774;8.472;2022-07-29T06:10:52;11.10;;;3.35;;
18288;SDS011;9270;49.774;8.472;2022-07-29T06:13:18;15.35;;;3.38;;
18288;SDS011;9270;49.774;8.472;2022-07-29T06:15:45;11.98;;;2.75;;
18288;SDS011;9270;49.774;8.472;2022-07-29T06:18:13;11.82;;;3.00;;
18288;SDS011;9270;49.774;8.472;2022-07-29T06:20:40;16.05;;;3.15;;
18288;SDS011;9270;49.774;8.472;2022-07-29T06:23:07;13.25;;;2.85;;
18288;SDS011;9270;49.774;8.472;2022-07-29T06:25:34;13.80;;;3.08;;
18288;SDS011;9270;49.774;8.472;2022-07-29T06:28:01;12.27;;;3.00;;
18288;SDS011;9270;49.774;8.472;2022-07-29T06:30:29;14.93;;;3.10;;
18288;SDS011;9270;49.774;8.472;2022-07-29T06:32:55;13.65;;;3.55;;
18288;SDS011;9270;49.774;8.472;2022-07-29T06:35:23;11.73;;;3.00;;
18288;SDS011;9270;49.774;8.472;2022-07-29T06:37:50;16.52;;;3.20;;
18288;SDS011;9270;49.774;8.472;2022-07-29T06:40:17;10.25;;;3.28;;
18288;SDS011;9270;49.774;8.472;2022-07-29T06:43:02;14.23;;;3.15;;
18288;SDS011;9270;49.774;8.472;2022-07-29T06:45:28;11.82;;;3.17;;
18288;SDS011;9270;49.774;8.472;2022-07-29T06:47:55;14.23;;;3.42;;
18288;SDS011;9270;49.774;8.472;2022-07-29T06:50:23;12.40;;;2.95;;
18288;SDS011;9270;49.774;8.472;2022-07-29T06:52:50;13.70;;;3.20;;
18288;SDS011;9270;49.774;8.472;2022-07-29T06:55:16;14.55;;;2.95;;
18288;SDS011;9270;49.774;8.472;2022-07-29T06:57:44;9.77;;;3.00;;
18288;SDS011;9270;49.774;8.472;2022-07-29T07:00:12;10.80;;;3.40;;
18288;SDS011;9270;49.774;8.472;2022-07-29T07:02:39;17.00;;;3.70;;
18288;SDS011;9270;49.774;8.472;2022-07-29T07:05:06;14.02;;;3.35;;
18288;SDS011;9270;49.774;8.472;2022-07-29T07:07:34;10.82;;;2.85;;
18288;SDS011;9270;49.774;8.472;2022-07-29T07:10:01;11.45;;;2.92;;
18288;SDS011;9270;49.774;8.472;2022-07-29T07:12:28;15.70;;;3.22;;
18288;SDS011;9270;49.774;8.472;2022-07-29T07:14:55;8.90;;;3.28;;
18288;SDS011;9270;49.774;8.472;2022-07-29T07:17:21;14.25;;;3.20;;
18288;SDS011;9270;49.774;8.472;2022-07-29T07:19:49;7.97;;;3.10;;
18288;SDS011;9270;49.774;8.472;2022-07-29T07:22:15;9.50;;;2.97;;
18288;SDS011;9270;49.774;8.472;2022-07-29T07:24:43;7.63;;;2.60;;
18288;SDS011;9270;49.774;8.472;2022-07-29T07:27:10;12.07;;;3.33;;
18288;SDS011;9270;49.774;8.472;2022-07-29T07:29:37;10.77;;;3.28;;
18288;SDS011;9270;49.774;8.472;2022-07-29T07:32:06;9.45;;;2.97;;
18288;SDS011;9270;49.774;8.472;2022-07-29T07:34:32;11.25;;;3.30;;
18288;SDS011;9270;49.774;8.472;2022-07-29T07:36:59;8.48;;;3.00;;
18288;SDS011;9270;49.774;8.472;2022-07-29T07:39:26;11.55;;;3.05;;
18288;SDS011;9270;49.774;8.472;2022-07-29T07:41:54;9.10;;;3.22;;
18288;SDS011;9270;49.774;8.472;2022-07-29T07:44:21;14.02;;;3.47;;
18288;SDS011;9270;49.774;8.472;2022-07-29T07:46:47;11.10;;;3.25;;
18288;SDS011;9270;49.774;8.472;2022-07-29T07:49:14;9.00;;;3.10;;
18288;SDS011;9270;49.774;8.472;2022-07-29T07:51:41;10.50;;;3.28;;
18288;SDS011;9270;49.774;8.472;2022-07-29T07:54:07;10.48;;;3.38;;
18288;SDS011;9270;49.774;8.472;2022-07-29T07:56:34;10.13;;;3.50;;
18288;SDS011;9270;49.774;8.472;2022-07-29T07:59:02;9.35;;;3.40;;
18288;SDS011;9270;49.774;8.472;2022-07-29T08:01:29;13.10;;;3.92;;
18288;SDS011;9270;49.774;8.472;2022-07-29T08:03:56;11.23;;;3.92;;
18288;SDS011;9270;49.774;8.472;2022-07-29T08:06:23;9.82;;;3.80;;
18288;SDS011;9270;49.774;8.472;2022-07-29T08:08:50;10.32;;;3.60;;
18288;SDS011;9270;49.774;8.472;2022-07-29T08:11:17;9.40;;;3.35;;
18288;SDS011;9270;49.774;8.472;2022-07-29T08:13:43;10.02;;;3.75;;
18288;SDS011;9270;49.774;8.472;2022-07-29T08:16:13;9.32;;;3.67;;
18288;SDS011;9270;49.774;8.472;2022-07-29T08:18:41;10.30;;;3.65;;
18288;SDS011;9270;49.774;8.472;2022-07-29T08:21:08;9.23;;;3.50;;
18288;SDS011;9270;49.774;8.472;2022-07-29T08:23:35;8.10;;;3.55;;
18288;SDS011;9270;49.774;8.472;2022-07-29T08:26:04;10.52;;;3.80;;
18288;SDS011;9270;49.774;8.472;2022-07-29T08:28:35;10.20;;;4.18;;
18288;SDS011;9270;49.774;8.472;2022-07-29T08:31:02;9.05;;;3.70;;
18288;SDS011;9270;49.774;8.472;2022-07-29T08:33:30;9.77;;;3.53;;
18288;SDS011;9270;49.774;8.472;2022-07-29T08:35:57;11.60;;;4.30;;
18288;SDS011;9270;49.774;8.472;2022-07-29T08:38:24;10.75;;;4.18;;
18288;SDS011;9270;49.774;8.472;2022-07-29T08:40:52;9.63;;;3.80;;
18288;SDS011;9270;49.774;8.472;2022-07-29T08:43:19;9.13;;;3.60;;
18288;SDS011;9270;49.774;8.472;2022-07-29T08:45:47;11.75;;;3.50;;
18288;SDS011;9270;49.774;8.472;2022-07-29T08:48:15;9.40;;;3.88;;
18288;SDS011;9270;49.774;8.472;2022-07-29T08:50:46;9.77;;;3.65;;
18288;SDS011;9270;49.774;8.472;2022-07-29T08:53:15;11.88;;;3.60;;
18288;SDS011;9270;49.774;8.472;2022-07-29T08:55:43;9.10;;;3.90;;
18288;SDS011;9270;49.774;8.472;2022-07-29T08:58:11;10.60;;;3.80;;
18288;SDS011;9270;49.774;8.472;2022-07-29T09:00:41;10.82;;;3.67;;
18288;SDS011;9270;49.774;8.472;2022-07-29T09:03:09;9.32;;;3.50;;
18288;SDS011;9270;49.774;8.472;2022-07-29T09:05:41;12.85;;;3.75;;
18288;SDS011;9270;49.774;8.472;2022-07-29T09:08:09;10.30;;;3.50;;
18288;SDS011;9270;49.774;8.472;2022-07-29T09:10:37;9.40;;;3.85;;
18288;SDS011;9270;49.774;8.472;2022-07-29T09:13:03;8.05;;;3.58;;
18288;SDS011;9270;49.774;8.472;2022-07-29T09:15:31;13.30;;;4.03;;
18288;SDS011;9270;49.774;8.472;2022-07-29T09:17:58;13.43;;;4.20;;
18288;SDS011;9270;49.774;8.472;2022-07-29T09:20:25;9.20;;;3.80;;
18288;SDS011;9270;49.774;8.472;2022-07-29T09:23:13;11.60;;;3.83;;
18288;SDS011;9270;49.774;8.472;2022-07-29T09:25:40;10.63;;;3.90;;
18288;SDS011;9270;49.774;8.472;2022-07-29T09:28:07;8.15;;;3.55;;
18288;SDS011;9270;49.774;8.472;2022-07-29T09:30:35;10.02;;;3.90;;
18288;SDS011;9270;49.774;8.472;2022-07-29T09:33:05;9.55;;;3.88;;
18288;SDS011;9270;49.774;8.472;2022-07-29T09:35:31;8.65;;;3.55;;
18288;SDS011;9270;49.774;8.472;2022-07-29T09:38:00;9.95;;;3.72;;
18288;SDS011;9270;49.774;8.472;2022-07-29T09:40:38;9.95;;;3.83;;
18288;SDS011;9270;49.774;8.472;2022-07-29T09:43:14;12.07;;;4.20;;
18288;SDS011;9270;49.774;8.472;2022-07-29T09:45:40;12.15;;;4.10;;
18288;SDS011;9270;49.774;8.472;2022-07-29T09:48:14;9.35;;;4.00;;
18288;SDS011;9270;49.774;8.472;2022-07-29T09:50:43;11.40;;;3.80;;
18288;SDS011;9270;49.774;8.472;2022-07-29T09:53:12;13.15;;;3.70;;
18288;SDS011;9270;49.774;8.472;2022-07-29T09:55:56;9.88;;;3.90;;
18288;SDS011;9270;49.774;8.472;2022-07-29T09:58:23;10.80;;;3.45;;
18288;SDS011;9270;49.774;8.472;2022-07-29T10:00:50;8.57;;;3.47;;
18288;SDS011;9270;49.774;8.472;2022-07-29T10:03:18;10.70;;;3.75;;
18288;SDS011;9270;49.774;8.472;2022-07-29T10:05:46;9.95;;;3.95;;
18288;SDS011;9270;49.774;8.472;2022-07-29T10:08:29;11.55;;;3.95;;
18288;SDS011;9270;49.774;8.472;2022-07-29T10:11:08;10.32;;;3.97;;
18288;SDS011;9270;49.774;8.472;2022-07-29T10:13:35;12.27;;;4.05;;
18288;SDS011;9270;49.774;8.472;2022-07-29T10:16:02;10.60;;;3.78;;
18288;SDS011;9270;49.774;8.472;2022-07-29T10:18:30;9.70;;;3.80;;
18288;SDS011;9270;49.774;8.472;2022-07-29T10:20:58;9.60;;;4.00;;
18288;SDS011;9270;49.774;8.472;2022-07-29T10:23:26;12.52;;;4.03;;
18288;SDS011;9270;49.774;8.472;2022-07-29T10:25:53;13.25;;;4.18;;
18288;SDS011;9270;49.774;8.472;2022-07-29T10:28:22;10.02;;;4.03;;
18288;SDS011;9270;49.774;8.472;2022-07-29T10:30:50;10.45;;;4.13;;
18288;SDS011;9270;49.774;8.472;2022-07-29T10:33:21;7.63;;;3.70;;
18288;SDS011;9270;49.774;8.472;2022-07-29T10:35:59;9.98;;;3.83;;
18288;SDS011;9270;49.774;8.472;2022-07-29T10:38:41;10.98;;;4.20;;
18288;SDS011;9270;49.774;8.472;2022-07-29T10:41:12;9.48;;;3.80;;
18288;SDS011;9270;49.774;8.472;2022-07-29T10:43:55;11.18;;;3.90;;
18288;SDS011;9270;49.774;8.472;2022-07-29T10:46:25;10.07;;;3.72;;
18288;SDS011;9270;49.774;8.472;2022-07-29T10:51:55;8.93;;;3.47;;
18288;SDS011;9270;49.774;8.472;2022-07-29T10:54:40;8.60;;;3.70;;
18288;SDS011;9270;49.774;8.472;2022-07-29T10:57:22;9.88;;;3.70;;
18288;SDS011;9270;49.774;8.472;2022-07-29T11:02:57;10.63;;;3.33;;
18288;SDS011;9270;49.774;8.472;2022-07-29T11:05:25;10.38;;;3.60;;
18288;SDS011;9270;49.774;8.472;2022-07-29T11:10:46;13.48;;;4.10;;
18288;SDS011;9270;49.774;8.472;2022-07-29T11:13:17;10.82;;;3.90;;
18288;SDS011;9270;49.774;8.472;2022-07-29T11:16:16;11.55;;;4.10;;
18288;SDS011;9270;49.774;8.472;2022-07-29T11:21:45;12.20;;;3.70;;
18288;SDS011;9270;49.774;8.472;2022-07-29T11:24:15;9.40;;;3.75;;
18288;SDS011;9270;49.774;8.472;2022-07-29T11:26:43;10.27;;;3.67;;
18288;SDS011;9270;49.774;8.472;2022-07-29T11:29:18;8.95;;;3.67;;
18288;SDS011;9270;49.774;8.472;2022-07-29T11:31:49;11.15;;;3.80;;
18288;SDS011;9270;49.774;8.472;2022-07-29T11:34:23;11.55;;;4.50;;
18288;SDS011;9270;49.774;8.472;2022-07-29T11:39:40;9.52;;;3.72;;
18288;SDS011;9270;49.774;8.472;2022-07-29T11:45:21;9.38;;;3.60;;
18288;SDS011;9270;49.774;8.472;2022-07-29T11:47:55;9.07;;;3.70;;
18288;SDS011;9270;49.774;8.472;2022-07-29T11:50:32;15.70;;;3.88;;
18288;SDS011;9270;49.774;8.472;2022-07-29T11:53:00;8.38;;;3.60;;
18288;SDS011;9270;49.774;8.472;2022-07-29T11:55:29;14.35;;;3.67;;
18288;SDS011;9270;49.774;8.472;2022-07-29T11:57:57;11.20;;;3.20;;
18288;SDS011;9270;49.774;8.472;2022-07-29T12:00:26;10.18;;;3.60;;
18288;SDS011;9270;49.774;8.472;2022-07-29T12:02:57;9.40;;;3.35;;
18288;SDS011;9270;49.774;8.472;2022-07-29T12:05:32;6.47;;;2.78;;
18288;SDS011;9270;49.774;8.472;2022-07-29T12:08:07;9.57;;;3.38;;
18288;SDS011;9270;49.774;8.472;2022-07-29T12:10:35;8.43;;;3.30;;
18288;SDS011;9270;49.774;8.472;2022-07-29T12:13:02;13.40;;;3.30;;
18288;SDS011;9270;49.774;8.472;2022-07-29T12:15:30;8.13;;;3.15;;
18288;SDS011;9270;49.774;8.472;2022-07-29T12:17:58;7.53;;;3.00;;
18288;SDS011;9270;49.774;8.472;2022-07-29T12:20:25;7.45;;;3.17;;
18288;SDS011;9270;49.774;8.472;2022-07-29T12:22:53;8.18;;;2.80;;
18288;SDS011;9270;49.774;8.472;2022-07-29T12:25:20;8.43;;;2.70;;
18288;SDS011;9270;49.774;8.472;2022-07-29T12:27:57;11.82;;;2.85;;
18288;SDS011;9270;49.774;8.472;2022-07-29T12:30:34;6.00;;;3.00;;
18288;SDS011;9270;49.774;8.472;2022-07-29T12:33:17;9.63;;;3.35;;
18288;SDS011;9270;49.774;8.472;2022-07-29T12:35:46;7.45;;;2.90;;
18288;SDS011;9270;49.774;8.472;2022-07-29T12:38:16;8.18;;;3.33;;
18288;SDS011;9270;49.774;8.472;2022-07-29T12:40:43;7.45;;;3.13;;
18288;SDS011;9270;49.774;8.472;2022-07-29T12:43:12;7.45;;;3.20;;
18288;SDS011;9270;49.774;8.472;2022-07-29T12:45:41;7.43;;;2.90;;
18288;SDS011;9270;49.774;8.472;2022-07-29T12:48:08;6.72;;;3.03;;
18288;SDS011;9270;49.774;8.472;2022-07-29T12:50:51;9.82;;;3.25;;
18288;SDS011;9270;49.774;8.472;2022-07-29T12:53:19;10.65;;;3.50;;
18288;SDS011;9270;49.774;8.472;2022-07-29T12:55:47;9.18;;;3.30;;
18288;SDS011;9270;49.774;8.472;2022-07-29T12:58:29;9.98;;;3.28;;
18288;SDS011;9270;49.774;8.472;2022-07-29T13:00:59;11.50;;;3.55;;
18288;SDS011;9270;49.774;8.472;2022-07-29T13:03:41;9.85;;;3.38;;
18288;SDS011;9270;49.774;8.472;2022-07-29T13:08:59;10.80;;;3.58;;
18288;SDS011;9270;49.774;8.472;2022-07-29T13:11:28;10.07;;;3.28;;
18288;SDS011;9270;49.774;8.472;2022-07-29T13:13:55;10.13;;;3.58;;
18288;SDS011;9270;49.774;8.472;2022-07-29T13:16:22;9.85;;;3.63;;
18288;SDS011;9270;49.774;8.472;2022-07-29T13:18:54;10.48;;;3.67;;
18288;SDS011;9270;49.774;8.472;2022-07-29T13:21:34;8.52;;;3.35;;
18288;SDS011;9270;49.774;8.472;2022-07-29T13:24:02;10.23;;;3.85;;
18288;SDS011;9270;49.774;8.472;2022-07-29T13:26:29;9.18;;;3.63;;
18288;SDS011;9270;49.774;8.472;2022-07-29T13:28:56;7.78;;;3.40;;
18288;SDS011;9270;49.774;8.472;2022-07-29T13:31:23;9.13;;;3.60;;
18288;SDS011;9270;49.774;8.472;2022-07-29T13:33:50;9.35;;;3.65;;
18288;SDS011;9270;49.774;8.472;2022-07-29T13:36:18;8.00;;;3.47;;
18288;SDS011;9270;49.774;8.472;2022-07-29T13:38:46;10.82;;;3.88;;
18288;SDS011;9270;49.774;8.472;2022-07-29T13:41:13;11.43;;;3.80;;
18288;SDS011;9270;49.774;8.472;2022-07-29T13:43:40;12.20;;;3.75;;
18288;SDS011;9270;49.774;8.472;2022-07-29T13:46:07;9.25;;;3.95;;
18288;SDS011;9270;49.774;8.472;2022-07-29T13:48:33;15.85;;;4.03;;
18288;SDS011;9270;49.774;8.472;2022-07-29T13:51:00;10.52;;;3.95;;
18288;SDS011;9270;49.774;8.472;2022-07-29T13:53:27;11.38;;;3.75;;
18288;SDS011;9270;49.774;8.472;2022-07-29T13:55:55;9.82;;;4.15;;
18288;SDS011;9270;49.774;8.472;2022-07-29T13:58:22;11.85;;;3.90;;
18288;SDS011;9270;49.774;8.472;2022-07-29T14:00:49;12.07;;;3.72;;
18288;SDS011;9270;49.774;8.472;2022-07-29T14:03:16;9.73;;;3.53;;
18288;SDS011;9270;49.774;8.472;2022-07-29T14:05:43;12.13;;;3.75;;
18288;SDS011;9270;49.774;8.472;2022-07-29T14:08:09;12.52;;;4.00;;
18288;SDS011;9270;49.774;8.472;2022-07-29T14:10:36;12.63;;;3.55;;
18288;SDS011;9270;49.774;8.472;2022-07-29T14:13:04;10.27;;;3.70;;
18288;SDS011;9270;49.774;8.472;2022-07-29T14:15:31;14.32;;;3.72;;
18288;SDS011;9270;49.774;8.472;2022-07-29T14:17:58;11.77;;;3.50;;
18288;SDS011;9270;49.774;8.472;2022-07-29T14:20:25;14.25;;;4.20;;
18288;SDS011;9270;49.774;8.472;2022-07-29T14:22:53;10.73;;;4.00;;
18288;SDS011;9270;49.774;8.472;2022-07-29T14:25:20;10.60;;;3.42;;
18288;SDS011;9270;49.774;8.472;2022-07-29T14:27:47;12.50;;;3.50;;
18288;SDS011;9270;49.774;8.472;2022-07-29T14:30:15;12.90;;;3.92;;
18288;SDS011;9270;49.774;8.472;2022-07-29T14:32:42;9.90;;;3.45;;
18288;SDS011;9270;49.774;8.472;2022-07-29T14:35:08;9.30;;;3.42;;
18288;SDS011;9270;49.774;8.472;2022-07-29T14:37:35;10.05;;;3.58;;
18288;SDS011;9270;49.774;8.472;2022-07-29T14:40:03;9.32;;;3.65;;
18288;SDS011;9270;49.774;8.472;2022-07-29T14:42:30;10.65;;;3.35;;
18288;SDS011;9270;49.774;8.472;2022-07-29T14:44:57;11.35;;;3.42;;
18288;SDS011;9270;49.774;8.472;2022-07-29T14:47:25;12.10;;;3.50;;
18288;SDS011;9270;49.774;8.472;2022-07-29T14:49:52;12.38;;;3.80;;
18288;SDS011;9270;49.774;8.472;2022-07-29T14:52:18;13.57;;;3.90;;
18288;SDS011;9270;49.774;8.472;2022-07-29T14:54:45;11.35;;;3.55;;
18288;SDS011;9270;49.774;8.472;2022-07-29T14:57:12;7.85;;;3.60;;
18288;SDS011;9270;49.774;8.472;2022-07-29T14:59:39;8.40;;;3.60;;
18288;SDS011;9270;49.774;8.472;2022-07-29T15:02:05;10.52;;;3.42;;
18288;SDS011;9270;49.774;8.472;2022-07-29T15:04:33;13.65;;;3.78;;
18288;SDS011;9270;49.774;8.472;2022-07-29T15:07:00;10.77;;;3.53;;
18288;SDS011;9270;49.774;8.472;2022-07-29T15:09:27;8.77;;;3.40;;
18288;SDS011;9270;49.774;8.472;2022-07-29T15:11:54;7.97;;;3.33;;
18288;SDS011;9270;49.774;8.472;2022-07-29T15:14:20;10.35;;;3.80;;
18288;SDS011;9270;49.774;8.472;2022-07-29T15:16:47;9.65;;;3.83;;
18288;SDS011;9270;49.774;8.472;2022-07-29T15:19:14;8.30;;;3.20;;
18288;SDS011;9270;49.774;8.472;2022-07-29T15:21:42;9.07;;;3.20;;
18288;SDS011;9270;49.774;8.472;2022-07-29T15:24:09;12.43;;;3.47;;
18288;SDS011;9270;49.774;8.472;2022-07-29T15:26:36;11.18;;;3.45;;
18288;SDS011;9270;49.774;8.472;2022-07-29T15:29:02;11.27;;;3.47;;
18288;SDS011;9270;49.774;8.472;2022-07-29T15:31:29;10.80;;;3.15;;
18288;SDS011;9270;49.774;8.472;2022-07-29T15:33:56;14.48;;;3.72;;
18288;SDS011;9270;49.774;8.472;2022-07-29T15:36:22;11.15;;;3.80;;
18288;SDS011;9270;49.774;8.472;2022-07-29T15:38:52;13.13;;;3.70;;
18288;SDS011;9270;49.774;8.472;2022-07-29T15:41:19;14.35;;;3.58;;
18288;SDS011;9270;49.774;8.472;2022-07-29T15:43:47;7.43;;;3.10;;
18288;SDS011;9270;49.774;8.472;2022-07-29T15:46:15;11.20;;;3.42;;
18288;SDS011;9270;49.774;8.472;2022-07-29T15:49:00;8.85;;;3.10;;
18288;SDS011;9270;49.774;8.472;2022-07-29T15:51:28;6.38;;;3.05;;
18288;SDS011;9270;49.774;8.472;2022-07-29T15:53:56;9.30;;;3.30;;
18288;SDS011;9270;49.774;8.472;2022-07-29T15:56:23;7.70;;;3.35;;
18288;SDS011;9270;49.774;8.472;2022-07-29T15:58:50;8.70;;;3.28;;
18288;SDS011;9270;49.774;8.472;2022-07-29T16:01:17;9.13;;;3.50;;
18288;SDS011;9270;49.774;8.472;2022-07-29T16:03:44;8.88;;;3.25;;
18288;SDS011;9270;49.774;8.472;2022-07-29T16:06:11;9.85;;;3.47;;
18288;SDS011;9270;49.774;8.472;2022-07-29T16:08:38;12.70;;;3.55;;
18288;SDS011;9270;49.774;8.472;2022-07-29T16:11:06;15.88;;;3.90;;
18288;SDS011;9270;49.774;8.472;2022-07-29T16:13:33;13.10;;;3.33;;
18288;SDS011;9270;49.774;8.472;2022-07-29T16:15:59;10.25;;;3.50;;
18288;SDS011;9270;49.774;8.472;2022-07-29T16:18:26;12.60;;;3.60;;
18288;SDS011;9270;49.774;8.472;2022-07-29T16:20:53;7.45;;;3.28;;
18288;SDS011;9270;49.774;8.472;2022-07-29T16:23:20;8.88;;;3.25;;
18288;SDS011;9270;49.774;8.472;2022-07-29T16:25:48;13.07;;;3.10;;
18288;SDS011;9270;49.774;8.472;2022-07-29T16:28:16;10.90;;;3.60;;
18288;SDS011;9270;49.774;8.472;2022-07-29T16:30:43;9.10;;;3.08;;
18288;SDS011;9270;49.774;8.472;2022-07-29T16:33:13;12.98;;;3.55;;
18288;SDS011;9270;49.774;8.472;2022-07-29T16:35:39;10.35;;;4.05;;
18288;SDS011;9270;49.774;8.472;2022-07-29T16:38:06;12.63;;;3.90;;
18288;SDS011;9270;49.774;8.472;2022-07-29T16:40:33;14.80;;;3.90;;
18288;SDS011;9270;49.774;8.472;2022-07-29T16:43:00;13.02;;;4.30;;
18288;SDS011;9270;49.774;8.472;2022-07-29T16:45:28;11.60;;;5.03;;
18288;SDS011;9270;49.774;8.472;2022-07-29T16:47:54;11.45;;;4.35;;
18288;SDS011;9270;49.774;8.472;2022-07-29T16:50:22;15.18;;;4.30;;
18288;SDS011;9270;49.774;8.472;2022-07-29T16:52:49;14.45;;;3.88;;
18288;SDS011;9270;49.774;8.472;2022-07-29T16:55:16;11.55;;;3.80;;
18288;SDS011;9270;49.774;8.472;2022-07-29T16:57:43;10.30;;;4.00;;
18288;SDS011;9270;49.774;8.472;2022-07-29T17:00:11;8.75;;;3.67;;
18288;SDS011;9270;49.774;8.472;2022-07-29T17:02:40;9.02;;;3.72;;
18288;SDS011;9270;49.774;8.472;2022-07-29T17:05:07;10.70;;;4.25;;
18288;SDS011;9270;49.774;8.472;2022-07-29T17:07:36;9.48;;;3.63;;
18288;SDS011;9270;49.774;8.472;2022-07-29T17:10:06;10.63;;;4.30;;
18288;SDS011;9270;49.774;8.472;2022-07-29T17:12:34;9.25;;;3.97;;
18288;SDS011;9270;49.774;8.472;2022-07-29T17:15:02;9.30;;;3.80;;
18288;SDS011;9270;49.774;8.472;2022-07-29T17:17:30;11.63;;;3.70;;
18288;SDS011;9270;49.774;8.472;2022-07-29T17:19:58;10.07;;;3.60;;
18288;SDS011;9270;49.774;8.472;2022-07-29T17:22:25;10.20;;;4.10;;
18288;SDS011;9270;49.774;8.472;2022-07-29T17:24:52;9.05;;;3.90;;
18288;SDS011;9270;49.774;8.472;2022-07-29T17:27:18;10.02;;;3.78;;
18288;SDS011;9270;49.774;8.472;2022-07-29T17:29:45;8.85;;;3.70;;
18288;SDS011;9270;49.774;8.472;2022-07-29T17:32:12;10.43;;;3.53;;
18288;SDS011;9270;49.774;8.472;2022-07-29T17:34:39;10.45;;;3.92;;
18288;SDS011;9270;49.774;8.472;2022-07-29T17:37:08;7.72;;;3.30;;
18288;SDS011;9270;49.774;8.472;2022-07-29T17:39:36;8.25;;;3.38;;
18288;SDS011;9270;49.774;8.472;2022-07-29T17:42:04;8.30;;;3.17;;
18288;SDS011;9270;49.774;8.472;2022-07-29T17:44:32;8.32;;;3.35;;
18288;SDS011;9270;49.774;8.472;2022-07-29T17:46:59;9.63;;;3.75;;
18288;SDS011;9270;49.774;8.472;2022-07-29T17:49:26;8.57;;;3.47;;
18288;SDS011;9270;49.774;8.472;2022-07-29T17:51:52;8.20;;;3.10;;
18288;SDS011;9270;49.774;8.472;2022-07-29T17:54:20;8.43;;;3.30;;
18288;SDS011;9270;49.774;8.472;2022-07-29T17:56:47;9.20;;;3.30;;
18288;SDS011;9270;49.774;8.472;2022-07-29T17:59:14;7.05;;;3.10;;
18288;SDS011;9270;49.774;8.472;2022-07-29T18:01:41;8.90;;;3.55;;
18288;SDS011;9270;49.774;8.472;2022-07-29T18:04:07;8.20;;;3.38;;
18288;SDS011;9270;49.774;8.472;2022-07-29T18:06:35;10.30;;;3.70;;
18288;SDS011;9270;49.774;8.472;2022-07-29T18:09:02;10.07;;;3.45;;
18288;SDS011;9270;49.774;8.472;2022-07-29T18:11:30;8.63;;;3.30;;
18288;SDS011;9270;49.774;8.472;2022-07-29T18:13:57;10.80;;;3.92;;
18288;SDS011;9270;49.774;8.472;2022-07-29T18:16:24;7.85;;;3.38;;
18288;SDS011;9270;49.774;8.472;2022-07-29T18:18:50;10.43;;;3.58;;
18288;SDS011;9270;49.774;8.472;2022-07-29T18:21:17;9.52;;;3.25;;
18288;SDS011;9270;49.774;8.472;2022-07-29T18:23:44;7.95;;;2.90;;
18288;SDS011;9270;49.774;8.472;2022-07-29T18:26:14;13.25;;;3.55;;
18288;SDS011;9270;49.774;8.472;2022-07-29T18:28:42;7.95;;;3.30;;
18288;SDS011;9270;49.774;8.472;2022-07-29T18:31:09;7.80;;;3.40;;
18288;SDS011;9270;49.774;8.472;2022-07-29T18:33:37;8.20;;;3.33;;
18288;SDS011;9270;49.774;8.472;2022-07-29T18:36:04;9.15;;;3.13;;
18288;SDS011;9270;49.774;8.472;2022-07-29T18:38:31;9.02;;;3.47;;
18288;SDS011;9270;49.774;8.472;2022-07-29T18:40:58;9.70;;;3.50;;
18288;SDS011;9270;49.774;8.472;2022-07-29T18:43:25;9.30;;;3.50;;
18288;SDS011;9270;49.774;8.472;2022-07-29T18:45:53;14.90;;;5.40;;
18288;SDS011;9270;49.774;8.472;2022-07-29T18:48:19;20.00;;;6.22;;
18288;SDS011;9270;49.774;8.472;2022-07-29T18:50:46;24.42;;;7.30;;
18288;SDS011;9270;49.774;8.472;2022-07-29T18:53:13;15.55;;;5.60;;
18288;SDS011;9270;49.774;8.472;2022-07-29T18:55:41;12.90;;;5.07;;
18288;SDS011;9270;49.774;8.472;2022-07-29T18:58:08;14.77;;;5.15;;
18288;SDS011;9270;49.774;8.472;2022-07-29T19:00:34;10.95;;;5.00;;
18288;SDS011;9270;49.774;8.472;2022-07-29T19:03:02;14.45;;;6.03;;
18288;SDS011;9270;49.774;8.472;2022-07-29T19:05:29;12.98;;;4.80;;
18288;SDS011;9270;49.774;8.472;2022-07-29T19:07:56;12.18;;;5.28;;
18288;SDS011;9270;49.774;8.472;2022-07-29T19:10:23;15.10;;;5.00;;
18288;SDS011;9270;49.774;8.472;2022-07-29T19:12:50;12.55;;;5.07;;
18288;SDS011;9270;49.774;8.472;2022-07-29T19:15:18;13.23;;;5.22;;
18288;SDS011;9270;49.774;8.472;2022-07-29T19:17:45;12.77;;;5.60;;
18288;SDS011;9270;49.774;8.472;2022-07-29T19:20:13;14.25;;;5.20;;
18288;SDS011;9270;49.774;8.472;2022-07-29T19:22:40;9.90;;;4.55;;
18288;SDS011;9270;49.774;8.472;2022-07-29T19:25:07;13.35;;;5.63;;
18288;SDS011;9270;49.774;8.472;2022-07-29T19:27:34;14.15;;;5.72;;
18288;SDS011;9270;49.774;8.472;2022-07-29T19:30:01;11.85;;;5.60;;
18288;SDS011;9270;49.774;8.472;2022-07-29T19:32:30;10.70;;;6.07;;
18288;SDS011;9270;49.774;8.472;2022-07-29T19:34:57;13.23;;;6.30;;
18288;SDS011;9270;49.774;8.472;2022-07-29T19:37:42;14.10;;;7.30;;
18288;SDS011;9270;49.774;8.472;2022-07-29T19:40:09;12.73;;;6.20;;
18288;SDS011;9270;49.774;8.472;2022-07-29T19:42:36;10.68;;;5.93;;
18288;SDS011;9270;49.774;8.472;2022-07-29T19:45:03;12.32;;;5.75;;
18288;SDS011;9270;49.774;8.472;2022-07-29T19:47:31;12.88;;;7.35;;
18288;SDS011;9270;49.774;8.472;2022-07-29T19:49:57;10.93;;;6.53;;
18288;SDS011;9270;49.774;8.472;2022-07-29T19:52:25;11.27;;;6.40;;